Time;durP1;ratioP1;P1;durP2;ratioP2;P2;SDS_P1;SDS_P2;PMS_P1;PMS_P2;Temp;Humidity;BMP_temperature;BMP_pressure;BME280_temperature;BME280_humidity;BME280_pressure;Samples;Min_cycle;Max_cycle;Signal;HPM_P1;HPM_P2
2023/09/11 00:00:50;;;;;;;1.90;1.70;;;;;18.80;96126.00;;;;5056221;28;20176;-61
2023/09/11 00:03:17;;;;;;;1.73;1.63;;;;;18.90;96130.00;;;;5055535;28;20189;-60
2023/09/11 00:05:44;;;;;;;1.37;1.30;;;;;18.90;96122.00;;;;5056009;28;20211;-60
2023/09/11 00:08:15;;;;;;;1.97;1.87;;;;;19.00;96120.00;;;;5055826;28;20589;-60
2023/09/11 00:10:42;;;;;;;2.03;1.93;;;;;19.00;96120.00;;;;5056359;28;20191;-59
2023/09/11 00:13:09;;;;;;;1.90;1.80;;;;;18.80;96118.00;;;;5055567;28;20568;-59
2023/09/11 00:15:37;;;;;;;1.60;1.50;;;;;18.70;96108.00;;;;5055504;28;20671;-60
2023/09/11 00:18:05;;;;;;;2.63;2.13;;;;;18.50;96110.00;;;;5055315;28;20189;-60
2023/09/11 00:20:33;;;;;;;3.63;2.37;;;;;18.50;96104.00;;;;5055389;28;20211;-59
2023/09/11 00:23:01;;;;;;;1.00;1.00;;;;;18.60;96100.00;;;;5055579;28;20314;-59
2023/09/11 00:25:30;;;;;;;1.50;1.40;;;;;18.60;96102.00;;;;5055227;28;20556;-59
2023/09/11 00:27:57;;;;;;;1.97;1.87;;;;;18.60;96104.00;;;;5055126;28;20772;-59
2023/09/11 00:30:24;;;;;;;1.90;1.80;;;;;18.60;96099.00;;;;5054388;28;20203;-59
2023/09/11 00:32:52;;;;;;;4.47;2.07;;;;;18.60;96094.00;;;;5055169;28;20188;-59
2023/09/11 00:35:19;;;;;;;1.10;1.10;;;;;18.50;96095.00;;;;5055149;28;20216;-59
2023/09/11 00:37:50;;;;;;;1.93;1.83;;;;;18.50;96097.00;;;;5055337;28;20191;-60
2023/09/11 00:40:18;;;;;;;2.03;1.93;;;;;18.40;96090.00;;;;5055296;28;20181;-60
2023/09/11 00:42:47;;;;;;;2.73;1.73;;;;;18.40;96082.00;;;;5055301;28;20199;-59
2023/09/11 00:45:15;;;;;;;1.50;1.40;;;;;18.30;96083.00;;;;5054937;28;20219;-59
2023/09/11 00:47:47;;;;;;;2.53;1.57;;;;;18.40;96078.00;;;;5054731;28;20227;-59
2023/09/11 00:50:22;;;;;;;1.07;1.07;;;;;18.20;96076.00;;;;5054888;28;20233;-59
2023/09/11 00:52:49;;;;;;;1.03;1.03;;;;;18.20;96064.00;;;;5055295;28;20182;-59
2023/09/11 00:55:24;;;;;;;2.17;2.03;;;;;18.20;96072.00;;;;5054618;28;20211;-59
2023/09/11 00:58:02;;;;;;;1.50;1.43;;;;;18.30;96071.00;;;;5054584;28;20196;-59
2023/09/11 01:00:30;;;;;;;2.03;1.83;;;;;18.30;96071.00;;;;5054645;28;20203;-59
2023/09/11 01:02:59;;;;;;;1.23;1.17;;;;;18.20;96064.00;;;;5054523;28;20219;-59
2023/09/11 01:05:30;;;;;;;1.90;1.60;;;;;18.20;96064.00;;;;5054438;28;20576;-60
2023/09/11 01:07:59;;;;;;;1.20;1.20;;;;;18.00;96065.00;;;;5054450;28;20384;-60
2023/09/11 01:10:26;;;;;;;1.97;1.87;;;;;18.00;96062.00;;;;5054377;28;20203;-60
2023/09/11 01:12:54;;;;;;;2.07;1.97;;;;;17.90;96057.00;;;;5054349;28;20200;-59
2023/09/11 01:15:30;;;;;;;1.00;1.00;;;;;17.90;96046.00;;;;5054179;28;20333;-59
2023/09/11 01:18:07;;;;;;;2.07;1.80;;;;;18.00;96052.00;;;;5054187;28;20180;-60
2023/09/11 01:21:00;;;;;;;2.20;2.00;;;;;17.90;96051.00;;;;5054495;28;20202;-59
2023/09/11 01:24:06;;;;;;;1.73;1.63;;;;;17.80;96046.00;;;;5054541;28;20188;-59
2023/09/11 01:27:31;;;;;;;1.33;1.23;;;;;17.70;96049.00;;;;5030122;28;20654;-59
2023/09/11 01:30:01;;;;;;;1.23;1.23;;;;;17.70;96043.00;;;;5052150;28;20210;-59
2023/09/11 01:32:32;;;;;;;1.67;1.57;;;;;17.80;96045.00;;;;5053987;28;20203;-59
2023/09/11 01:34:59;;;;;;;1.37;1.37;;;;;17.70;96047.00;;;;5053831;28;20216;-59
2023/09/11 01:37:27;;;;;;;2.07;1.93;;;;;17.80;96045.00;;;;5054188;28;20192;-58
2023/09/11 01:39:58;;;;;;;2.30;2.20;;;;;17.90;96046.00;;;;5054488;28;20196;-58
2023/09/11 01:42:32;;;;;;;1.37;1.30;;;;;17.80;96046.00;;;;5036068;28;20548;-58
2023/09/11 01:45:01;;;;;;;1.73;1.63;;;;;17.70;96045.00;;;;5036080;28;20216;-59
2023/09/11 01:47:31;;;;;;;1.70;1.60;;;;;17.60;96035.00;;;;5054269;28;20203;-59
2023/09/11 01:49:59;;;;;;;1.60;1.50;;;;;17.50;96037.00;;;;5053924;28;20206;-59
2023/09/11 01:52:27;;;;;;;1.77;1.67;;;;;17.50;96042.00;;;;5053694;28;20675;-60
2023/09/11 01:54:57;;;;;;;1.30;1.27;;;;;17.60;96041.00;;;;5053795;28;20215;-59
2023/09/11 01:57:27;;;;;;;1.17;1.17;;;;;17.40;96034.00;;;;5053519;28;20729;-60
2023/09/11 01:59:55;;;;;;;1.80;1.70;;;;;17.30;96043.00;;;;5054057;28;20172;-59
2023/09/11 02:02:23;;;;;;;1.90;1.80;;;;;17.40;96040.00;;;;5053780;28;20196;-59
2023/09/11 02:04:51;;;;;;;1.03;1.03;;;;;17.40;96043.00;;;;5053417;28;20223;-59
2023/09/11 02:07:18;;;;;;;1.73;1.63;;;;;17.40;96041.00;;;;5053443;28;20203;-59
2023/09/11 02:09:48;;;;;;;1.27;1.23;;;;;17.40;96040.00;;;;5053327;28;20671;-59
2023/09/11 02:12:17;;;;;;;1.80;1.70;;;;;17.40;96040.00;;;;5053310;28;20241;-59
2023/09/11 02:14:45;;;;;;;1.10;1.10;;;;;17.40;96029.00;;;;5053198;28;20223;-59
2023/09/11 02:17:13;;;;;;;2.50;2.30;;;;;17.30;96038.00;;;;5053600;28;20242;-59
2023/09/11 02:19:44;;;;;;;1.40;1.30;;;;;17.30;96036.00;;;;5053192;28;20543;-59
2023/09/11 02:22:17;;;;;;;1.43;1.33;;;;;17.30;96040.00;;;;5053196;28;20184;-59
2023/09/11 02:24:45;;;;;;;1.10;1.10;;;;;17.20;96041.00;;;;5053149;28;20211;-59
2023/09/11 02:27:12;;;;;;;1.47;1.37;;;;;17.20;96039.00;;;;5053655;28;20199;-59
2023/09/11 02:29:39;;;;;;;1.53;1.43;;;;;17.10;96035.00;;;;5053368;28;20222;-59
2023/09/11 02:32:07;;;;;;;3.60;2.20;;;;;16.90;96037.00;;;;5053047;28;20250;-59
2023/09/11 02:34:36;;;;;;;24.23;1.90;;;;;16.90;96033.00;;;;5035514;28;20224;-59
2023/09/11 02:37:05;;;;;;;1.40;1.30;;;;;16.80;96031.00;;;;5052994;28;20195;-59
2023/09/11 02:39:33;;;;;;;1.77;1.67;;;;;16.70;96032.00;;;;5053304;28;20192;-59
2023/09/11 02:42:02;;;;;;;1.77;1.67;;;;;16.70;96037.00;;;;5052959;28;20196;-59
2023/09/11 02:44:31;;;;;;;1.13;1.13;;;;;16.70;96043.00;;;;5052849;28;20220;-59
2023/09/11 02:46:59;;;;;;;2.70;2.50;;;;;16.60;96044.00;;;;5053127;28;20192;-59
2023/09/11 02:49:26;;;;;;;5.80;2.33;;;;;16.70;96032.00;;;;5053145;28;20555;-59
2023/09/11 02:52:01;;;;;;;1.37;1.30;;;;;16.70;96032.00;;;;5052902;28;20672;-59
2023/09/11 02:54:34;;;;;;;2.60;2.03;;;;;16.60;96036.00;;;;5057188;28;20269;-59
2023/09/11 02:59:40;;;;;;;1.73;1.63;;;;;16.50;96036.00;;;;5054625;28;20219;-63
2023/09/11 03:02:09;;;;;;;2.40;2.20;;;;;16.50;96022.00;;;;5057269;28;20204;-64
2023/09/11 03:04:36;;;;;;;1.33;1.33;;;;;16.50;96021.00;;;;5057624;28;20216;-67
2023/09/11 03:07:05;;;;;;;1.40;1.30;;;;;16.50;96017.00;;;;5057367;28;20192;-63
2023/09/11 03:09:34;;;;;;;1.27;1.17;;;;;16.50;96020.00;;;;5057039;28;20216;-63
2023/09/11 03:12:01;;;;;;;1.50;1.40;;;;;16.50;96013.00;;;;5039071;28;20568;-63
2023/09/11 03:14:29;;;;;;;2.27;2.10;;;;;16.50;96022.00;;;;5056756;28;20223;-63
2023/09/11 03:16:56;;;;;;;1.10;1.10;;;;;16.40;96021.00;;;;5057164;28;20195;-63
2023/09/11 03:19:23;;;;;;;1.97;1.87;;;;;16.40;96012.00;;;;5056865;28;20194;-63
2023/09/11 03:21:51;;;;;;;1.83;1.70;;;;;16.40;96021.00;;;;5056710;28;20197;-63
2023/09/11 03:24:18;;;;;;;2.27;2.10;;;;;16.40;96020.00;;;;5056744;28;20239;-63
2023/09/11 03:26:49;;;;;;;1.57;1.47;;;;;16.40;96021.00;;;;5056715;28;20196;-63
2023/09/11 03:29:21;;;;;;;1.73;1.63;;;;;16.30;96019.00;;;;5056796;28;20604;-63
2023/09/11 03:31:53;;;;;;;1.90;1.73;;;;;16.40;96022.00;;;;5056664;28;20237;-63
2023/09/11 03:34:21;;;;;;;2.60;2.40;;;;;16.30;96018.00;;;;5056957;28;20322;-63
2023/09/11 03:36:48;;;;;;;1.93;1.83;;;;;16.30;96021.00;;;;5056903;28;20192;-64
2023/09/11 03:39:21;;;;;;;2.00;1.90;;;;;16.20;96030.00;;;;5056425;28;20246;-63
2023/09/11 03:41:50;;;;;;;1.97;1.77;;;;;16.00;96022.00;;;;5056594;28;20185;-63
2023/09/11 03:44:17;;;;;;;1.93;1.67;;;;;16.00;96013.00;;;;5056175;28;20226;-63
2023/09/11 03:46:45;;;;;;;1.00;1.00;;;;;16.00;96018.00;;;;5056187;28;20192;-63
2023/09/11 03:49:12;;;;;;;1.50;1.50;;;;;16.00;96015.00;;;;5056412;28;20693;-65
2023/09/11 03:51:39;;;;;;;1.17;1.17;;;;;15.90;96019.00;;;;5056049;28;20671;-63
2023/09/11 03:54:08;;;;;;;1.00;1.00;;;;;16.00;96012.00;;;;5056454;28;20574;-63
2023/09/11 03:56:37;;;;;;;4.20;1.83;;;;;15.80;96013.00;;;;5055912;28;20533;-63
2023/09/11 03:59:07;;;;;;;4.80;2.80;;;;;15.90;96014.00;;;;5056113;28;20253;-63
2023/09/11 04:01:44;;;;;;;1.73;1.63;;;;;16.00;96004.00;;;;5056080;28;20183;-63
2023/09/11 04:04:14;;;;;;;1.80;1.70;;;;;16.00;96001.00;;;;5054754;28;20608;-63
2023/09/11 04:06:41;;;;;;;2.23;2.07;;;;;16.00;96004.00;;;;5056321;28;20195;-63
2023/09/11 04:09:08;;;;;;;1.40;1.37;;;;;16.00;96001.00;;;;5055629;28;20212;-63
2023/09/11 04:11:38;;;;;;;2.30;2.20;;;;;16.10;96011.00;;;;5056359;28;20192;-63
2023/09/11 04:14:06;;;;;;;1.30;1.30;;;;;16.00;96003.00;;;;5055637;28;20547;-63
2023/09/11 04:16:34;;;;;;;1.00;1.00;;;;;16.10;96007.00;;;;5038073;28;20555;-63
2023/09/11 04:19:04;;;;;;;1.97;1.87;;;;;16.10;96009.00;;;;5056283;28;20195;-63
2023/09/11 04:21:31;;;;;;;1.17;1.17;;;;;16.00;96002.00;;;;5055797;28;20203;-63
2023/09/11 04:23:58;;;;;;;2.97;1.43;;;;;16.00;96003.00;;;;5055778;28;20650;-63
2023/09/11 04:26:29;;;;;;;2.17;2.07;;;;;16.00;96005.00;;;;5055477;28;20207;-63
2023/09/11 04:28:57;;;;;;;1.17;1.17;;;;;15.90;95999.00;;;;5056162;28;20282;-63
2023/09/11 04:31:25;;;;;;;3.10;2.47;;;;;15.80;96002.00;;;;5055865;28;20193;-63
2023/09/11 04:33:53;;;;;;;1.47;1.40;;;;;15.90;96007.00;;;;5055799;28;20235;-63
2023/09/11 04:36:20;;;;;;;2.00;1.80;;;;;15.90;95999.00;;;;5055424;28;20690;-63
2023/09/11 04:38:47;;;;;;;2.00;1.23;;;;;16.00;95999.00;;;;5037501;28;20196;-63
2023/09/11 04:41:16;;;;;;;1.60;1.50;;;;;16.00;95999.00;;;;5056072;28;20215;-63
2023/09/11 04:43:43;;;;;;;2.07;1.93;;;;;16.10;96005.00;;;;5055454;28;20269;-63
2023/09/11 04:46:13;;;;;;;1.13;1.13;;;;;16.10;96006.00;;;;5055382;28;20203;-63
2023/09/11 04:48:42;;;;;;;2.20;2.00;;;;;16.30;96010.00;;;;5055389;28;20231;-63
2023/09/11 04:51:09;;;;;;;2.80;2.60;;;;;16.20;96004.00;;;;5055478;28;20203;-63
2023/09/11 04:53:37;;;;;;;1.63;1.53;;;;;16.20;96002.00;;;;5055044;28;20219;-63
2023/09/11 04:56:05;;;;;;;2.23;2.03;;;;;16.20;96002.00;;;;5055131;28;20211;-63
2023/09/11 04:58:37;;;;;;;20.10;1.53;;;;;16.20;96004.00;;;;5055287;28;20219;-63
2023/09/11 05:01:08;;;;;;;2.17;1.60;;;;;16.30;96010.00;;;;5055602;28;20194;-63
2023/09/11 05:03:35;;;;;;;2.70;2.50;;;;;16.30;96006.00;;;;5055292;28;20215;-63
2023/09/11 05:06:06;;;;;;;1.33;1.33;;;;;16.30;96008.00;;;;5055666;28;20650;-63
2023/09/11 05:08:33;;;;;;;1.77;1.67;;;;;16.40;96007.00;;;;5055593;28;20187;-63
2023/09/11 05:11:04;;;;;;;1.67;1.57;;;;;16.40;96012.00;;;;5055653;28;20199;-62
2023/09/11 05:13:32;;;;;;;2.00;1.87;;;;;16.30;95996.00;;;;5055666;28;20215;-62
2023/09/11 05:15:59;;;;;;;1.77;1.67;;;;;16.10;96002.00;;;;5054504;28;20199;-63
2023/09/11 05:18:26;;;;;;;1.70;1.60;;;;;15.90;96000.00;;;;5054964;28;20196;-63
2023/09/11 05:20:54;;;;;;;1.43;1.37;;;;;15.90;96005.00;;;;5055169;28;20195;-63
2023/09/11 05:23:24;;;;;;;1.57;1.47;;;;;15.80;96004.00;;;;5054823;28;20197;-63
2023/09/11 05:25:52;;;;;;;1.77;1.63;;;;;15.90;96011.00;;;;5054978;28;20518;-63
2023/09/11 05:28:22;;;;;;;1.77;1.67;;;;;15.80;96009.00;;;;5055283;28;20612;-63
2023/09/11 05:30:52;;;;;;;1.33;1.33;;;;;15.80;96005.00;;;;5054761;28;20212;-63
2023/09/11 05:33:22;;;;;;;6.10;3.73;;;;;15.90;96009.00;;;;5054565;28;20200;-63
2023/09/11 05:35:49;;;;;;;1.90;1.80;;;;;15.80;96018.00;;;;5054533;28;20594;-63
2023/09/11 05:38:16;;;;;;;2.23;1.97;;;;;15.90;96013.00;;;;5054358;28;20582;-63
2023/09/11 05:40:47;;;;;;;2.03;1.93;;;;;15.90;96017.00;;;;5054482;28;20192;-63
2023/09/11 05:43:18;;;;;;;1.00;1.00;;;;;16.10;96014.00;;;;5054336;28;20565;-63
2023/09/11 05:45:46;;;;;;;1.93;1.83;;;;;16.10;96020.00;;;;5036732;28;20258;-63
2023/09/11 05:48:13;;;;;;;1.83;1.73;;;;;16.20;96020.00;;;;5054095;28;20188;-63
2023/09/11 05:50:41;;;;;;;1.47;1.47;;;;;16.20;96019.00;;;;5054285;28;20663;-62
2023/09/11 05:53:08;;;;;;;1.77;1.67;;;;;16.20;96018.00;;;;5053955;28;20286;-63
2023/09/11 05:55:36;;;;;;;1.77;1.67;;;;;16.20;96022.00;;;;5054124;28;20196;-62
2023/09/11 05:58:05;;;;;;;1.40;1.30;;;;;16.20;96023.00;;;;5053533;28;20227;-62
2023/09/11 06:00:33;;;;;;;1.30;1.30;;;;;16.30;96018.00;;;;5054050;28;20184;-62
2023/09/11 06:03:03;;;;;;;1.87;1.77;;;;;16.40;96018.00;;;;5053669;28;20192;-62
2023/09/11 06:05:35;;;;;;;1.77;1.67;;;;;16.50;96019.00;;;;5053384;28;20216;-62
2023/09/11 06:08:03;;;;;;;1.53;1.43;;;;;16.50;96017.00;;;;5054029;28;20181;-62
2023/09/11 06:10:33;;;;;;;1.50;1.40;;;;;16.70;96019.00;;;;5053521;28;20286;-62
2023/09/11 06:13:01;;;;;;;1.00;1.00;;;;;16.70;96024.00;;;;5053497;28;20184;-62
2023/09/11 06:15:30;;;;;;;2.17;1.80;;;;;16.80;96023.00;;;;5053212;28;20212;-62
2023/09/11 06:18:00;;;;;;;2.57;1.50;;;;;16.90;96023.00;;;;5053781;28;20242;-62
2023/09/11 06:20:31;;;;;;;1.57;1.47;;;;;16.80;96026.00;;;;5053736;28;20194;-62
2023/09/11 06:22:58;;;;;;;1.77;1.67;;;;;16.90;96026.00;;;;5053504;28;20279;-62
2023/09/11 06:25:26;;;;;;;1.93;1.83;;;;;17.00;96029.00;;;;5053179;28;20218;-62
2023/09/11 06:27:53;;;;;;;1.80;1.70;;;;;17.10;96026.00;;;;5052713;28;20204;-62
2023/09/11 06:30:20;;;;;;;2.13;1.73;;;;;17.10;96034.00;;;;5053869;28;20227;-62
2023/09/11 06:32:52;;;;;;;8.03;2.00;;;;;17.10;96030.00;;;;5053805;28;20682;-62
2023/09/11 06:35:19;;;;;;;1.87;1.77;;;;;17.20;96027.00;;;;5054293;28;20212;-62
2023/09/11 06:37:47;;;;;;;1.67;1.57;;;;;17.30;96024.00;;;;5053670;28;20207;-62
2023/09/11 06:40:17;;;;;;;1.73;1.63;;;;;17.30;96014.00;;;;5053716;28;20196;-62
2023/09/11 06:42:44;;;;;;;1.33;1.33;;;;;17.20;96016.00;;;;5054054;28;20188;-62
2023/09/11 06:45:11;;;;;;;1.37;1.37;;;;;17.40;96015.00;;;;5036279;28;20219;-62
2023/09/11 06:47:39;;;;;;;7.20;2.17;;;;;17.50;96014.00;;;;5054360;28;20670;-62
2023/09/11 06:50:08;;;;;;;2.70;2.50;;;;;17.50;96013.00;;;;5055709;28;20216;-63
2023/09/11 06:52:40;;;;;;;2.67;2.47;;;;;17.60;96016.00;;;;5037694;28;20600;-62
2023/09/11 06:55:13;;;;;;;2.37;2.23;;;;;17.70;96018.00;;;;5055500;28;20230;-62
2023/09/11 06:57:56;;;;;;;2.43;2.20;;;;;17.70;96015.00;;;;5054861;28;20218;-62
2023/09/11 07:00:24;;;;;;;7.07;3.13;;;;;17.80;96010.00;;;;5053953;28;20223;-63
2023/09/11 07:02:51;;;;;;;1.60;1.50;;;;;18.00;96012.00;;;;5054217;28;20208;-62
2023/09/11 07:05:25;;;;;;;2.07;1.77;;;;;18.20;96011.00;;;;5055507;28;20579;-65
2023/09/11 07:07:53;;;;;;;1.10;1.10;;;;;18.30;96020.00;;;;5055513;28;20180;-64
2023/09/11 07:10:23;;;;;;;5.13;2.27;;;;;18.50;96014.00;;;;5055293;28;20211;-65
2023/09/11 07:12:50;;;;;;;1.37;1.33;;;;;18.60;96008.00;;;;5055153;28;20644;-64
2023/09/11 07:15:19;;;;;;;1.20;1.20;;;;;18.80;96003.00;;;;5054854;28;20224;-61
2023/09/11 07:17:48;;;;;;;1.93;1.83;;;;;18.90;96006.00;;;;5053419;28;20271;-62
2023/09/11 07:20:17;;;;;;;2.67;1.63;;;;;19.00;96004.00;;;;5035082;28;20290;-62
2023/09/11 07:22:49;;;;;;;2.10;2.00;;;;;19.20;96009.00;;;;5052888;28;20188;-63
2023/09/11 07:25:17;;;;;;;3.30;1.90;;;;;19.30;96013.00;;;;5052589;28;20234;-63
2023/09/11 07:27:44;;;;;;;1.97;1.87;;;;;19.30;96014.00;;;;5052549;28;20192;-63
2023/09/11 07:30:12;;;;;;;1.40;1.30;;;;;19.40;96018.00;;;;5052695;28;20295;-63
2023/09/11 07:32:40;;;;;;;2.90;2.17;;;;;19.50;96012.00;;;;5052789;28;20216;-63
2023/09/11 07:35:09;;;;;;;1.30;1.30;;;;;19.70;96006.00;;;;5052719;28;20235;-63
2023/09/11 07:37:37;;;;;;;1.73;1.63;;;;;19.90;96010.00;;;;5052918;28;20246;-63
2023/09/11 07:40:08;;;;;;;1.60;1.57;;;;;20.00;96004.00;;;;5055954;28;20192;-63
2023/09/11 07:42:36;;;;;;;1.30;1.30;;;;;20.10;96007.00;;;;5056624;28;20520;-63
2023/09/11 07:45:07;;;;;;;1.53;1.43;;;;;20.10;96009.00;;;;5056326;28;20302;-61
2023/09/11 07:47:34;;;;;;;1.47;1.47;;;;;20.10;96009.00;;;;5056435;28;20263;-61
2023/09/11 07:50:01;;;;;;;2.17;1.98;;;;;20.10;96005.00;;;;5055903;28;20211;-62
2023/09/11 07:52:29;;;;;;;2.00;1.73;;;;;20.20;96005.00;;;;5055965;28;20192;-62
2023/09/11 07:54:59;;;;;;;2.00;1.90;;;;;20.30;96005.00;;;;5056122;28;20224;-62
2023/09/11 07:57:27;;;;;;;3.10;2.90;;;;;20.40;96007.00;;;;5055940;28;20200;-62
2023/09/11 07:59:55;;;;;;;2.27;2.07;;;;;20.60;96010.00;;;;5056034;28;20636;-62
2023/09/11 08:02:22;;;;;;;1.30;1.20;;;;;20.70;96011.00;;;;5056078;28;20196;-62
2023/09/11 08:04:51;;;;;;;2.17;2.03;;;;;20.90;96009.00;;;;5055758;28;20220;-63
2023/09/11 08:07:19;;;;;;;2.22;2.03;;;;;21.00;96008.00;;;;5037831;28;20219;-63
2023/09/11 08:09:48;;;;;;;1.50;1.40;;;;;21.00;96015.00;;;;5055665;28;20198;-62
2023/09/11 08:12:16;;;;;;;1.63;1.52;;;;;21.30;96013.00;;;;5055738;28;20199;-63
2023/09/11 08:14:45;;;;;;;2.03;1.92;;;;;21.50;96014.00;;;;5055602;28;20216;-63
2023/09/11 08:17:16;;;;;;;2.40;2.20;;;;;21.50;96020.00;;;;5037797;28;20603;-62
2023/09/11 08:19:43;;;;;;;2.42;1.90;;;;;21.70;96020.00;;;;5055359;28;20283;-63
2023/09/11 08:22:11;;;;;;;1.92;1.83;;;;;21.80;96017.00;;;;5055623;28;20559;-63
2023/09/11 08:24:38;;;;;;;3.17;2.13;;;;;22.00;96008.00;;;;5055416;28;20700;-63
2023/09/11 08:27:11;;;;;;;2.22;2.03;;;;;22.20;96016.00;;;;5056008;28;20196;-63
2023/09/11 08:29:45;;;;;;;1.23;1.23;;;;;22.30;96014.00;;;;5055621;28;20191;-63
2023/09/11 08:32:17;;;;;;;1.45;1.38;;;;;22.50;96009.00;;;;5038044;28;20192;-63
2023/09/11 08:34:45;;;;;;;3.25;2.83;;;;;22.60;96008.00;;;;5037404;28;20312;-63
2023/09/11 08:37:12;;;;;;;1.50;1.40;;;;;22.90;96018.00;;;;5055311;28;20195;-64
2023/09/11 08:39:40;;;;;;;1.85;1.75;;;;;23.00;96004.00;;;;5055997;28;20279;-63
2023/09/11 08:42:10;;;;;;;1.88;1.77;;;;;23.20;96003.00;;;;5037465;28;20200;-63
2023/09/11 08:44:38;;;;;;;1.50;1.40;;;;;23.30;96002.00;;;;5055678;28;20247;-63
2023/09/11 08:47:10;;;;;;;1.02;1.02;;;;;23.20;96005.00;;;;5055091;28;20192;-64
2023/09/11 08:49:43;;;;;;;1.20;1.20;;;;;23.50;95996.00;;;;5055364;28;20185;-63
2023/09/11 08:52:19;;;;;;;2.00;1.90;;;;;23.60;95998.00;;;;5055043;28;20177;-63
2023/09/11 08:54:56;;;;;;;1.10;1.10;;;;;23.80;95999.00;;;;5055009;28;20211;-64
2023/09/11 08:57:32;;;;;;;3.28;1.92;;;;;23.90;95994.00;;;;5068996;22;20245;-65
2023/09/11 09:00:04;;;;;;;1.20;1.20;;;;;24.20;96003.00;;;;5017088;28;20399;-59
2023/09/11 09:02:37;;;;;;;1.70;1.60;;;;;24.20;95999.00;;;;5034782;28;20185;-60
2023/09/11 09:05:06;;;;;;;2.13;1.95;;;;;24.40;95994.00;;;;5034666;28;20217;-60
2023/09/11 09:07:37;;;;;;;2.13;1.38;;;;;24.60;96009.00;;;;5034626;28;20672;-59
2023/09/11 09:10:06;;;;;;;1.60;1.50;;;;;24.80;96000.00;;;;5034994;28;20188;-59
2023/09/11 09:12:35;;;;;;;2.15;1.95;;;;;25.00;95994.00;;;;5034498;28;20196;-59
2023/09/11 09:15:05;;;;;;;2.40;2.22;;;;;25.20;96001.00;;;;5034815;28;20208;-59
2023/09/11 09:17:34;;;;;;;1.75;1.65;;;;;25.40;95998.00;;;;5034823;28;20227;-59
2023/09/11 09:20:05;;;;;;;1.67;1.58;;;;;25.50;95995.00;;;;5034335;28;20213;-59
2023/09/11 09:22:33;;;;;;;1.05;1.05;;;;;25.50;95989.00;;;;5034842;28;20189;-58
2023/09/11 09:25:00;;;;;;;1.13;1.13;;;;;25.70;95998.00;;;;5034334;28;20266;-59
2023/09/11 09:27:30;;;;;;;1.52;1.42;;;;;25.70;95997.00;;;;5034346;28;20616;-59
2023/09/11 09:29:58;;;;;;;4.32;2.78;;;;;25.70;95996.00;;;;5034281;28;20193;-58
2023/09/11 09:32:26;;;;;;;1.42;1.40;;;;;25.80;95989.00;;;;5034206;28;20668;-59
2023/09/11 09:35:01;;;;;;;1.92;1.80;;;;;26.00;95988.00;;;;5034238;28;20213;-59
2023/09/11 09:37:28;;;;;;;1.40;1.33;;;;;26.20;95988.00;;;;5034379;28;20184;-58
2023/09/11 09:39:56;;;;;;;1.13;1.13;;;;;26.30;95983.00;;;;5034429;28;20556;-59
2023/09/11 09:42:24;;;;;;;0.95;0.95;;;;;26.40;95985.00;;;;5034411;28;20216;-58
2023/09/11 09:44:53;;;;;;;2.08;1.98;;;;;26.40;95988.00;;;;5034281;28;20331;-59
2023/09/11 09:47:21;;;;;;;1.27;1.17;;;;;26.50;95979.00;;;;5034122;28;20189;-59
2023/09/11 09:49:51;;;;;;;1.52;1.42;;;;;26.60;95980.00;;;;5033875;28;20188;-59
2023/09/11 09:52:23;;;;;;;1.27;1.27;;;;;26.70;95972.00;;;;5033964;28;20239;-59
2023/09/11 09:54:54;;;;;;;3.22;2.70;;;;;26.80;95964.00;;;;5034552;28;20568;-59
2023/09/11 09:57:24;;;;;;;1.27;1.17;;;;;26.80;95964.00;;;;5033686;28;20185;-60
2023/09/11 09:59:57;;;;;;;3.33;2.33;;;;;26.90;95963.00;;;;5034189;28;20183;-58
2023/09/11 10:02:27;;;;;;;2.47;1.35;;;;;27.20;95963.00;;;;5032728;28;20280;-58
2023/09/11 10:04:56;;;;;;;2.03;1.83;;;;;27.60;95962.00;;;;5034387;28;20244;-58
2023/09/11 10:07:45;;;;;;;1.42;1.33;;;;;27.70;95963.00;;;;5033571;28;20192;-58
2023/09/11 10:10:23;;;;;;;1.40;1.30;;;;;27.90;95955.00;;;;5033983;28;20188;-58
2023/09/11 10:13:01;;;;;;;1.67;1.55;;;;;27.80;95946.00;;;;5033454;28;20298;-58
2023/09/11 10:15:29;;;;;;;1.52;1.42;;;;;27.90;95946.00;;;;5032098;28;20234;-58
2023/09/11 10:17:57;;;;;;;3.15;2.17;;;;;28.00;95947.00;;;;5033802;28;20220;-58
2023/09/11 10:20:26;;;;;;;1.33;1.23;;;;;28.10;95942.00;;;;5033714;28;20551;-59
2023/09/11 10:22:57;;;;;;;3.22;2.45;;;;;28.20;95935.00;;;;5033496;28;20263;-58
2023/09/11 10:25:26;;;;;;;1.60;1.50;;;;;28.50;95939.00;;;;5033511;28;20216;-58
2023/09/11 10:27:58;;;;;;;1.35;1.33;;;;;28.70;95930.00;;;;5033308;28;20193;-57
2023/09/11 10:30:32;;;;;;;1.75;1.65;;;;;28.90;95933.00;;;;5033588;28;20196;-58
2023/09/11 10:33:02;;;;;;;1.80;1.70;;;;;28.90;95928.00;;;;5033421;28;20242;-57
2023/09/11 10:35:34;;;;;;;1.85;1.75;;;;;29.00;95935.00;;;;5034199;28;20611;-59
2023/09/11 10:38:06;;;;;;;1.40;1.35;;;;;29.10;95935.00;;;;5031849;28;20562;-58
2023/09/11 10:40:36;;;;;;;2.20;2.00;;;;;29.30;95919.00;;;;5033049;28;20203;-58
2023/09/11 10:43:04;;;;;;;6.72;4.05;;;;;29.50;95924.00;;;;5033033;28;20655;-58
2023/09/11 10:45:34;;;;;;;2.65;2.45;;;;;29.60;95927.00;;;;5032927;28;20695;-58
2023/09/11 10:48:02;;;;;;;3.80;1.40;;;;;29.60;95927.00;;;;5033089;28;20193;-59
2023/09/11 10:50:37;;;;;;;1.85;1.70;;;;;29.70;95918.00;;;;5033250;28;20201;-59
2023/09/11 10:53:07;;;;;;;1.40;1.35;;;;;29.70;95917.00;;;;5033046;28;20177;-59
2023/09/11 10:55:35;;;;;;;1.50;1.42;;;;;29.80;95919.00;;;;5033150;28;20633;-60
2023/09/11 10:58:05;;;;;;;1.67;1.58;;;;;30.00;95923.00;;;;5033063;28;20207;-58
2023/09/11 11:00:37;;;;;;;3.03;2.65;;;;;30.10;95915.00;;;;5033503;28;20197;-58
2023/09/11 11:03:05;;;;;;;2.60;2.40;;;;;30.30;95911.00;;;;5033330;28;20659;-60
2023/09/11 11:05:33;;;;;;;3.35;1.40;;;;;30.40;95912.00;;;;5033076;28;20303;-60
2023/09/11 11:08:02;;;;;;;1.55;1.45;;;;;30.40;95916.00;;;;5033082;28;20575;-59
2023/09/11 11:10:32;;;;;;;1.30;1.25;;;;;30.50;95910.00;;;;5032836;28;20303;-59
2023/09/11 11:13:07;;;;;;;3.13;1.50;;;;;30.50;95909.00;;;;5033162;28;20548;-59
2023/09/11 11:15:35;;;;;;;1.38;1.38;;;;;30.20;95901.00;;;;5036657;28;20212;-57
2023/09/11 11:18:11;;;;;;;1.65;1.50;;;;;30.50;95904.00;;;;5037056;28;20606;-59
2023/09/11 11:21:02;;;;;;;4.22;2.28;;;;;30.70;95900.00;;;;5036648;28;20275;-57
2023/09/11 11:23:32;;;;;;;1.20;1.20;;;;;30.70;95908.00;;;;5037376;28;20546;-58
2023/09/11 11:26:04;;;;;;;3.00;2.75;;;;;30.70;95900.00;;;;5037226;28;20227;-59
2023/09/11 11:28:40;;;;;;;1.48;1.38;;;;;30.90;95898.00;;;;5019235;28;20219;-59
2023/09/11 11:31:09;;;;;;;2.58;2.38;;;;;31.00;95900.00;;;;5036559;28;20212;-59
2023/09/11 11:33:37;;;;;;;2.55;1.95;;;;;31.20;95901.00;;;;5036759;28;20215;-59
2023/09/11 11:36:09;;;;;;;1.88;1.77;;;;;31.20;95905.00;;;;5036686;28;20599;-58
2023/09/11 11:38:37;;;;;;;2.03;1.92;;;;;31.30;95909.00;;;;5036538;28;20187;-56
2023/09/11 11:41:08;;;;;;;2.88;1.55;;;;;31.10;95903.00;;;;5036376;28;20181;-56
2023/09/11 11:43:35;;;;;;;1.52;1.45;;;;;31.20;95907.00;;;;5036270;28;20208;-57
2023/09/11 11:46:06;;;;;;;1.42;1.40;;;;;31.50;95899.00;;;;5036014;28;20196;-58
2023/09/11 11:48:37;;;;;;;1.73;1.63;;;;;31.80;95900.00;;;;5035908;28;20178;-57
2023/09/11 11:51:05;;;;;;;3.10;2.03;;;;;31.90;95901.00;;;;5036015;28;20205;-58
2023/09/11 11:53:33;;;;;;;0.93;0.93;;;;;32.10;95900.00;;;;5034426;28;20303;-57
2023/09/11 11:56:03;;;;;;;1.83;1.55;;;;;31.80;95901.00;;;;5035746;28;20193;-58
2023/09/11 11:58:32;;;;;;;1.77;1.67;;;;;32.00;95904.00;;;;5017920;28;20216;-58
2023/09/11 12:01:02;;;;;;;2.58;2.38;;;;;32.10;95897.00;;;;5035696;28;20228;-57
2023/09/11 12:03:32;;;;;;;2.63;1.52;;;;;32.20;95903.00;;;;5035550;28;20232;-58
2023/09/11 12:06:00;;;;;;;1.13;1.13;;;;;32.20;95896.00;;;;5035938;28;20287;-58
2023/09/11 12:08:29;;;;;;;2.50;2.30;;;;;32.40;95894.00;;;;5034375;28;20258;-58
2023/09/11 12:10:56;;;;;;;1.73;1.63;;;;;32.50;95900.00;;;;5035753;28;20553;-58
2023/09/11 12:13:25;;;;;;;1.17;1.17;;;;;32.50;95897.00;;;;5035521;28;20243;-58
2023/09/11 12:15:56;;;;;;;1.35;1.35;;;;;32.50;95903.00;;;;5035620;28;20507;-58
2023/09/11 12:18:24;;;;;;;1.40;1.30;;;;;32.40;95901.00;;;;5035425;28;20185;-58
2023/09/11 12:20:54;;;;;;;3.58;2.75;;;;;32.60;95895.00;;;;5035293;28;20193;-58
2023/09/11 12:23:22;;;;;;;5.65;3.33;;;;;32.70;95901.00;;;;5034158;28;20238;-58
2023/09/11 12:25:50;;;;;;;2.05;1.90;;;;;33.00;95896.00;;;;5034660;28;20652;-58
2023/09/11 12:28:18;;;;;;;2.05;1.88;;;;;33.30;95896.00;;;;5035840;28;20660;-58
2023/09/11 12:30:46;;;;;;;1.77;1.63;;;;;33.40;95902.00;;;;5033846;28;20284;-58
2023/09/11 12:33:17;;;;;;;15.18;2.72;;;;;33.50;95896.00;;;;5035055;28;20219;-58